sensor_id;sensor_type;location;lat;lon;timestamp;P1;durP1;ratioP1;P2;durP2;ratioP2
4424;SDS011;2225;53.568;13.266;2023-09-12T00:01:29;47.20;;;14.17;;
4424;SDS011;2225;53.568;13.266;2023-09-12T00:03:59;36.43;;;12.23;;
4424;SDS011;2225;53.568;13.266;2023-09-12T00:06:26;31.73;;;13.17;;
4424;SDS011;2225;53.568;13.266;2023-09-12T00:08:53;28.00;;;12.70;;
4424;SDS011;2225;53.568;13.266;2023-09-12T00:11:20;33.67;;;12.50;;
4424;SDS011;2225;53.568;13.266;2023-09-12T00:13:53;24.87;;;12.10;;
4424;SDS011;2225;53.568;13.266;2023-09-12T00:16:20;43.07;;;11.87;;
4424;SDS011;2225;53.568;13.266;2023-09-12T00:18:47;41.80;;;11.80;;
4424;SDS011;2225;53.568;13.266;2023-09-12T00:21:14;23.70;;;12.63;;
4424;SDS011;2225;53.568;13.266;2023-09-12T00:23:41;24.97;;;11.50;;
4424;SDS011;2225;53.568;13.266;2023-09-12T00:26:08;25.67;;;12.00;;
4424;SDS011;2225;53.568;13.266;2023-09-12T00:28:35;32.57;;;14.07;;
4424;SDS011;2225;53.568;13.266;2023-09-12T00:31:03;21.23;;;12.40;;
4424;SDS011;2225;53.568;13.266;2023-09-12T00:33:30;23.77;;;11.90;;
4424;SDS011;2225;53.568;13.266;2023-09-12T00:35:58;26.23;;;12.03;;
4424;SDS011;2225;53.568;13.266;2023-09-12T00:38:25;27.70;;;12.57;;
4424;SDS011;2225;53.568;13.266;2023-09-12T00:40:52;25.20;;;12.47;;
4424;SDS011;2225;53.568;13.266;2023-09-12T00:43:18;28.40;;;13.57;;
4424;SDS011;2225;53.568;13.266;2023-09-12T00:45:45;21.53;;;12.40;;
4424;SDS011;2225;53.568;13.266;2023-09-12T00:48:13;21.63;;;12.23;;
4424;SDS011;2225;53.568;13.266;2023-09-12T00:50:41;35.63;;;12.37;;
4424;SDS011;2225;53.568;13.266;2023-09-12T00:53:09;38.43;;;12.90;;
4424;SDS011;2225;53.568;13.266;2023-09-12T00:55:36;26.03;;;12.17;;
4424;SDS011;2225;53.568;13.266;2023-09-12T00:58:08;25.90;;;11.97;;
4424;SDS011;2225;53.568;13.266;2023-09-12T01:00:35;27.60;;;13.30;;
4424;SDS011;2225;53.568;13.266;2023-09-12T01:03:02;33.43;;;12.50;;
4424;SDS011;2225;53.568;13.266;2023-09-12T01:05:31;24.20;;;12.10;;
4424;SDS011;2225;53.568;13.266;2023-09-12T01:07:59;30.83;;;12.73;;
4424;SDS011;2225;53.568;13.266;2023-09-12T01:10:26;30.63;;;13.50;;
4424;SDS011;2225;53.568;13.266;2023-09-12T01:12:53;23.00;;;12.47;;
4424;SDS011;2225;53.568;13.266;2023-09-12T01:15:20;31.57;;;10.43;;
4424;SDS011;2225;53.568;13.266;2023-09-12T01:17:47;25.13;;;11.57;;
4424;SDS011;2225;53.568;13.266;2023-09-12T01:20:25;23.33;;;11.97;;
4424;SDS011;2225;53.568;13.266;2023-09-12T01:23:02;30.87;;;12.53;;
4424;SDS011;2225;53.568;13.266;2023-09-12T01:25:59;24.53;;;12.00;;
4424;SDS011;2225;53.568;13.266;2023-09-12T01:28:37;22.03;;;11.63;;
4424;SDS011;2225;53.568;13.266;2023-09-12T01:31:09;30.27;;;12.50;;
4424;SDS011;2225;53.568;13.266;2023-09-12T01:33:37;24.10;;;12.77;;
4424;SDS011;2225;53.568;13.266;2023-09-12T01:36:04;26.60;;;12.87;;
4424;SDS011;2225;53.568;13.266;2023-09-12T01:38:31;20.07;;;11.43;;
4424;SDS011;2225;53.568;13.266;2023-09-12T01:40:58;29.93;;;13.60;;
4424;SDS011;2225;53.568;13.266;2023-09-12T01:43:25;23.87;;;12.43;;
4424;SDS011;2225;53.568;13.266;2023-09-12T01:45:54;20.40;;;11.60;;
4424;SDS011;2225;53.568;13.266;2023-09-12T01:48:24;24.17;;;11.60;;
4424;SDS011;2225;53.568;13.266;2023-09-12T01:51:03;34.47;;;13.27;;
4424;SDS011;2225;53.568;13.266;2023-09-12T01:53:31;24.57;;;13.53;;
4424;SDS011;2225;53.568;13.266;2023-09-12T01:55:59;26.63;;;13.70;;
4424;SDS011;2225;53.568;13.266;2023-09-12T01:58:27;31.43;;;13.10;;
4424;SDS011;2225;53.568;13.266;2023-09-12T02:00:54;26.73;;;14.27;;
4424;SDS011;2225;53.568;13.266;2023-09-12T02:03:21;32.13;;;13.80;;
4424;SDS011;2225;53.568;13.266;2023-09-12T02:05:48;30.43;;;13.40;;
4424;SDS011;2225;53.568;13.266;2023-09-12T02:08:15;42.93;;;13.87;;
4424;SDS011;2225;53.568;13.266;2023-09-12T02:10:42;26.40;;;13.13;;
4424;SDS011;2225;53.568;13.266;2023-09-12T02:13:09;26.03;;;13.57;;
4424;SDS011;2225;53.568;13.266;2023-09-12T02:15:36;35.67;;;13.93;;
4424;SDS011;2225;53.568;13.266;2023-09-12T02:18:04;39.90;;;14.30;;
4424;SDS011;2225;53.568;13.266;2023-09-12T02:20:31;30.80;;;13.70;;
4424;SDS011;2225;53.568;13.266;2023-09-12T02:22:58;33.73;;;14.50;;
4424;SDS011;2225;53.568;13.266;2023-09-12T02:25:25;41.77;;;14.13;;
4424;SDS011;2225;53.568;13.266;2023-09-12T02:27:52;34.60;;;14.60;;
4424;SDS011;2225;53.568;13.266;2023-09-12T02:30:19;29.63;;;13.23;;
4424;SDS011;2225;53.568;13.266;2023-09-12T02:32:46;30.63;;;12.83;;
4424;SDS011;2225;53.568;13.266;2023-09-12T02:35:13;26.23;;;13.40;;
4424;SDS011;2225;53.568;13.266;2023-09-12T02:37:40;27.73;;;14.30;;
4424;SDS011;2225;53.568;13.266;2023-09-12T02:40:07;24.03;;;13.50;;
4424;SDS011;2225;53.568;13.266;2023-09-12T02:42:37;36.43;;;13.53;;
4424;SDS011;2225;53.568;13.266;2023-09-12T02:45:05;26.67;;;13.73;;
4424;SDS011;2225;53.568;13.266;2023-09-12T02:47:32;30.80;;;13.83;;
4424;SDS011;2225;53.568;13.266;2023-09-12T02:50:00;29.60;;;13.70;;
4424;SDS011;2225;53.568;13.266;2023-09-12T02:52:27;27.43;;;13.63;;
4424;SDS011;2225;53.568;13.266;2023-09-12T02:54:54;22.80;;;13.03;;
4424;SDS011;2225;53.568;13.266;2023-09-12T02:57:21;33.60;;;13.47;;
4424;SDS011;2225;53.568;13.266;2023-09-12T02:59:48;27.57;;;12.60;;
4424;SDS011;2225;53.568;13.266;2023-09-12T03:02:15;23.20;;;12.80;;
4424;SDS011;2225;53.568;13.266;2023-09-12T03:04:42;25.37;;;13.10;;
4424;SDS011;2225;53.568;13.266;2023-09-12T03:07:09;30.40;;;12.50;;
4424;SDS011;2225;53.568;13.266;2023-09-12T03:09:36;27.77;;;14.27;;
4424;SDS011;2225;53.568;13.266;2023-09-12T03:12:04;29.13;;;13.57;;
4424;SDS011;2225;53.568;13.266;2023-09-12T03:14:32;27.73;;;13.00;;
4424;SDS011;2225;53.568;13.266;2023-09-12T03:17:00;23.43;;;12.10;;
4424;SDS011;2225;53.568;13.266;2023-09-12T03:19:29;24.97;;;13.77;;
4424;SDS011;2225;53.568;13.266;2023-09-12T03:21:56;27.43;;;13.20;;
4424;SDS011;2225;53.568;13.266;2023-09-12T03:24:23;31.37;;;15.57;;
4424;SDS011;2225;53.568;13.266;2023-09-12T03:26:51;24.50;;;12.53;;
4424;SDS011;2225;53.568;13.266;2023-09-12T03:29:18;25.50;;;12.40;;
4424;SDS011;2225;53.568;13.266;2023-09-12T03:31:46;28.20;;;13.60;;
4424;SDS011;2225;53.568;13.266;2023-09-12T03:34:13;36.63;;;12.83;;
4424;SDS011;2225;53.568;13.266;2023-09-12T03:36:40;25.63;;;10.93;;
4424;SDS011;2225;53.568;13.266;2023-09-12T03:39:07;32.00;;;12.93;;
4424;SDS011;2225;53.568;13.266;2023-09-12T03:41:35;29.27;;;13.70;;
4424;SDS011;2225;53.568;13.266;2023-09-12T03:44:02;30.07;;;13.40;;
4424;SDS011;2225;53.568;13.266;2023-09-12T03:46:29;31.73;;;13.03;;
4424;SDS011;2225;53.568;13.266;2023-09-12T03:48:56;24.50;;;13.50;;
4424;SDS011;2225;53.568;13.266;2023-09-12T03:51:23;30.80;;;13.40;;
4424;SDS011;2225;53.568;13.266;2023-09-12T03:53:50;23.13;;;13.03;;
4424;SDS011;2225;53.568;13.266;2023-09-12T03:56:17;28.13;;;13.40;;
4424;SDS011;2225;53.568;13.266;2023-09-12T03:58:46;22.93;;;11.63;;
4424;SDS011;2225;53.568;13.266;2023-09-12T04:01:13;24.90;;;11.60;;
4424;SDS011;2225;53.568;13.266;2023-09-12T04:03:41;25.80;;;11.90;;
4424;SDS011;2225;53.568;13.266;2023-09-12T04:06:08;32.23;;;12.97;;
4424;SDS011;2225;53.568;13.266;2023-09-12T04:08:36;25.97;;;11.80;;
4424;SDS011;2225;53.568;13.266;2023-09-12T04:11:03;24.70;;;13.07;;
4424;SDS011;2225;53.568;13.266;2023-09-12T04:13:30;26.67;;;11.93;;
4424;SDS011;2225;53.568;13.266;2023-09-12T04:15:58;26.37;;;11.50;;
4424;SDS011;2225;53.568;13.266;2023-09-12T04:18:25;22.20;;;11.30;;
4424;SDS011;2225;53.568;13.266;2023-09-12T04:20:53;28.03;;;13.10;;
4424;SDS011;2225;53.568;13.266;2023-09-12T04:23:27;30.33;;;11.27;;
4424;SDS011;2225;53.568;13.266;2023-09-12T04:25:54;26.33;;;13.17;;
4424;SDS011;2225;53.568;13.266;2023-09-12T04:28:21;33.33;;;12.60;;
4424;SDS011;2225;53.568;13.266;2023-09-12T04:30:48;23.30;;;11.60;;
4424;SDS011;2225;53.568;13.266;2023-09-12T04:33:15;29.20;;;13.20;;
4424;SDS011;2225;53.568;13.266;2023-09-12T04:35:42;29.13;;;12.70;;
4424;SDS011;2225;53.568;13.266;2023-09-12T04:38:09;22.60;;;11.40;;
4424;SDS011;2225;53.568;13.266;2023-09-12T04:40:36;24.40;;;12.10;;
4424;SDS011;2225;53.568;13.266;2023-09-12T04:43:05;28.50;;;11.23;;
4424;SDS011;2225;53.568;13.266;2023-09-12T04:45:33;23.93;;;11.70;;
4424;SDS011;2225;53.568;13.266;2023-09-12T04:48:00;20.40;;;11.10;;
4424;SDS011;2225;53.568;13.266;2023-09-12T04:50:28;32.77;;;11.90;;
4424;SDS011;2225;53.568;13.266;2023-09-12T04:52:55;24.03;;;11.30;;
4424;SDS011;2225;53.568;13.266;2023-09-12T04:55:22;35.17;;;11.37;;
4424;SDS011;2225;53.568;13.266;2023-09-12T04:57:49;25.00;;;10.50;;
4424;SDS011;2225;53.568;13.266;2023-09-12T05:00:16;23.20;;;11.87;;
4424;SDS011;2225;53.568;13.266;2023-09-12T05:02:43;19.10;;;11.30;;
4424;SDS011;2225;53.568;13.266;2023-09-12T05:05:10;27.27;;;11.90;;
4424;SDS011;2225;53.568;13.266;2023-09-12T05:07:37;31.37;;;12.67;;
4424;SDS011;2225;53.568;13.266;2023-09-12T05:10:05;25.67;;;13.50;;
4424;SDS011;2225;53.568;13.266;2023-09-12T05:12:32;27.87;;;13.10;;
4424;SDS011;2225;53.568;13.266;2023-09-12T05:14:59;22.97;;;12.43;;
4424;SDS011;2225;53.568;13.266;2023-09-12T05:17:27;28.10;;;13.63;;
4424;SDS011;2225;53.568;13.266;2023-09-12T05:19:55;36.97;;;13.97;;
4424;SDS011;2225;53.568;13.266;2023-09-12T05:22:22;24.63;;;12.87;;
4424;SDS011;2225;53.568;13.266;2023-09-12T05:24:49;38.77;;;13.10;;
4424;SDS011;2225;53.568;13.266;2023-09-12T05:27:16;21.43;;;11.80;;
4424;SDS011;2225;53.568;13.266;2023-09-12T05:29:43;17.87;;;10.93;;
4424;SDS011;2225;53.568;13.266;2023-09-12T05:32:10;24.50;;;11.67;;
4424;SDS011;2225;53.568;13.266;2023-09-12T05:34:37;35.90;;;12.10;;
4424;SDS011;2225;53.568;13.266;2023-09-12T05:37:04;24.80;;;12.97;;
4424;SDS011;2225;53.568;13.266;2023-09-12T05:39:31;21.77;;;11.50;;
4424;SDS011;2225;53.568;13.266;2023-09-12T05:41:58;23.90;;;11.60;;
4424;SDS011;2225;53.568;13.266;2023-09-12T05:44:25;27.73;;;13.33;;
4424;SDS011;2225;53.568;13.266;2023-09-12T05:46:52;22.97;;;13.07;;
4424;SDS011;2225;53.568;13.266;2023-09-12T05:49:20;24.57;;;12.73;;
4424;SDS011;2225;53.568;13.266;2023-09-12T05:51:47;25.93;;;13.70;;
4424;SDS011;2225;53.568;13.266;2023-09-12T05:54:14;31.43;;;13.07;;
4424;SDS011;2225;53.568;13.266;2023-09-12T05:56:41;29.27;;;13.80;;
4424;SDS011;2225;53.568;13.266;2023-09-12T05:59:08;21.57;;;12.83;;
4424;SDS011;2225;53.568;13.266;2023-09-12T06:01:35;30.67;;;12.13;;
4424;SDS011;2225;53.568;13.266;2023-09-12T06:04:03;33.83;;;13.73;;
4424;SDS011;2225;53.568;13.266;2023-09-12T06:06:32;30.73;;;13.00;;
4424;SDS011;2225;53.568;13.266;2023-09-12T06:08:59;28.17;;;15.10;;
4424;SDS011;2225;53.568;13.266;2023-09-12T06:11:26;31.77;;;13.10;;
4424;SDS011;2225;53.568;13.266;2023-09-12T06:13:53;25.23;;;13.80;;
4424;SDS011;2225;53.568;13.266;2023-09-12T06:16:20;28.40;;;11.97;;
4424;SDS011;2225;53.568;13.266;2023-09-12T06:18:47;41.33;;;13.67;;
4424;SDS011;2225;53.568;13.266;2023-09-12T06:21:14;29.77;;;13.87;;
4424;SDS011;2225;53.568;13.266;2023-09-12T06:23:41;24.10;;;12.30;;
4424;SDS011;2225;53.568;13.266;2023-09-12T06:26:08;29.67;;;12.77;;
4424;SDS011;2225;53.568;13.266;2023-09-12T06:28:35;28.23;;;13.07;;
4424;SDS011;2225;53.568;13.266;2023-09-12T06:31:02;36.30;;;13.80;;
4424;SDS011;2225;53.568;13.266;2023-09-12T06:33:29;23.67;;;12.37;;
4424;SDS011;2225;53.568;13.266;2023-09-12T06:35:56;41.27;;;13.37;;
4424;SDS011;2225;53.568;13.266;2023-09-12T06:38:23;32.70;;;13.20;;
4424;SDS011;2225;53.568;13.266;2023-09-12T06:40:50;32.70;;;12.60;;
4424;SDS011;2225;53.568;13.266;2023-09-12T06:43:18;27.37;;;12.10;;
4424;SDS011;2225;53.568;13.266;2023-09-12T06:45:45;26.17;;;12.80;;
4424;SDS011;2225;53.568;13.266;2023-09-12T06:48:12;28.87;;;15.97;;
4424;SDS011;2225;53.568;13.266;2023-09-12T06:50:39;33.50;;;14.60;;
4424;SDS011;2225;53.568;13.266;2023-09-12T06:53:06;34.23;;;13.80;;
4424;SDS011;2225;53.568;13.266;2023-09-12T06:55:33;29.00;;;13.17;;
4424;SDS011;2225;53.568;13.266;2023-09-12T06:58:00;22.77;;;12.67;;
4424;SDS011;2225;53.568;13.266;2023-09-12T07:00:27;33.93;;;13.03;;
4424;SDS011;2225;53.568;13.266;2023-09-12T07:02:55;30.17;;;13.50;;
4424;SDS011;2225;53.568;13.266;2023-09-12T07:05:22;25.80;;;12.37;;
4424;SDS011;2225;53.568;13.266;2023-09-12T07:07:49;34.83;;;13.70;;
4424;SDS011;2225;53.568;13.266;2023-09-12T07:10:16;26.87;;;12.60;;
4424;SDS011;2225;53.568;13.266;2023-09-12T07:12:53;27.30;;;12.77;;
4424;SDS011;2225;53.568;13.266;2023-09-12T07:15:21;30.73;;;12.27;;
4424;SDS011;2225;53.568;13.266;2023-09-12T07:17:48;30.73;;;13.20;;
4424;SDS011;2225;53.568;13.266;2023-09-12T07:20:15;26.97;;;13.47;;
4424;SDS011;2225;53.568;13.266;2023-09-12T07:22:44;18.27;;;11.30;;
4424;SDS011;2225;53.568;13.266;2023-09-12T07:25:11;20.97;;;12.13;;
4424;SDS011;2225;53.568;13.266;2023-09-12T07:27:42;25.63;;;12.27;;
4424;SDS011;2225;53.568;13.266;2023-09-12T07:30:09;31.67;;;12.07;;
4424;SDS011;2225;53.568;13.266;2023-09-12T07:32:37;32.63;;;12.57;;
4424;SDS011;2225;53.568;13.266;2023-09-12T07:35:04;35.47;;;13.50;;
4424;SDS011;2225;53.568;13.266;2023-09-12T07:37:31;27.00;;;11.47;;
4424;SDS011;2225;53.568;13.266;2023-09-12T07:39:58;25.37;;;12.70;;
4424;SDS011;2225;53.568;13.266;2023-09-12T07:42:25;32.20;;;13.70;;
4424;SDS011;2225;53.568;13.266;2023-09-12T07:44:52;29.27;;;12.47;;
4424;SDS011;2225;53.568;13.266;2023-09-12T07:47:19;31.67;;;14.40;;
4424;SDS011;2225;53.568;13.266;2023-09-12T07:49:52;31.10;;;13.30;;
4424;SDS011;2225;53.568;13.266;2023-09-12T07:52:20;44.57;;;15.33;;
4424;SDS011;2225;53.568;13.266;2023-09-12T07:54:49;34.03;;;13.23;;
4424;SDS011;2225;53.568;13.266;2023-09-12T07:57:18;28.10;;;14.37;;
4424;SDS011;2225;53.568;13.266;2023-09-12T07:59:46;42.93;;;15.80;;
4424;SDS011;2225;53.568;13.266;2023-09-12T08:02:13;30.97;;;15.60;;
4424;SDS011;2225;53.568;13.266;2023-09-12T08:04:40;31.97;;;14.47;;
4424;SDS011;2225;53.568;13.266;2023-09-12T08:07:07;29.50;;;15.63;;
4424;SDS011;2225;53.568;13.266;2023-09-12T08:12:24;37.97;;;14.50;;
4424;SDS011;2225;53.568;13.266;2023-09-12T08:14:56;32.87;;;14.70;;
4424;SDS011;2225;53.568;13.266;2023-09-12T08:17:23;26.77;;;13.70;;
4424;SDS011;2225;53.568;13.266;2023-09-12T08:19:50;29.03;;;17.00;;
4424;SDS011;2225;53.568;13.266;2023-09-12T08:22:18;28.83;;;14.73;;
4424;SDS011;2225;53.568;13.266;2023-09-12T08:24:45;36.40;;;17.53;;
4424;SDS011;2225;53.568;13.266;2023-09-12T08:27:12;32.13;;;16.53;;
4424;SDS011;2225;53.568;13.266;2023-09-12T08:29:40;33.37;;;14.00;;
4424;SDS011;2225;53.568;13.266;2023-09-12T08:32:08;25.13;;;11.70;;
4424;SDS011;2225;53.568;13.266;2023-09-12T08:34:35;24.30;;;14.07;;
4424;SDS011;2225;53.568;13.266;2023-09-12T08:37:02;35.13;;;14.70;;
4424;SDS011;2225;53.568;13.266;2023-09-12T08:39:39;25.47;;;13.47;;
4424;SDS011;2225;53.568;13.266;2023-09-12T08:42:13;29.37;;;14.60;;
4424;SDS011;2225;53.568;13.266;2023-09-12T08:44:42;31.10;;;14.37;;
4424;SDS011;2225;53.568;13.266;2023-09-12T08:47:09;28.87;;;14.53;;
4424;SDS011;2225;53.568;13.266;2023-09-12T08:49:38;20.50;;;12.77;;
4424;SDS011;2225;53.568;13.266;2023-09-12T08:52:05;24.10;;;11.77;;
4424;SDS011;2225;53.568;13.266;2023-09-12T08:54:32;16.97;;;10.60;;
4424;SDS011;2225;53.568;13.266;2023-09-12T08:57:01;18.47;;;9.80;;
4424;SDS011;2225;53.568;13.266;2023-09-12T08:59:31;27.73;;;10.00;;
4424;SDS011;2225;53.568;13.266;2023-09-12T09:02:00;23.37;;;11.07;;
4424;SDS011;2225;53.568;13.266;2023-09-12T09:04:29;22.80;;;10.07;;
4424;SDS011;2225;53.568;13.266;2023-09-12T09:06:57;19.50;;;10.90;;
4424;SDS011;2225;53.568;13.266;2023-09-12T09:09:26;20.63;;;9.10;;
4424;SDS011;2225;53.568;13.266;2023-09-12T09:11:55;18.50;;;10.00;;
4424;SDS011;2225;53.568;13.266;2023-09-12T09:14:22;17.30;;;9.40;;
4424;SDS011;2225;53.568;13.266;2023-09-12T09:16:49;14.40;;;7.60;;
4424;SDS011;2225;53.568;13.266;2023-09-12T09:19:17;20.30;;;7.87;;
4424;SDS011;2225;53.568;13.266;2023-09-12T09:21:46;19.83;;;8.40;;
4424;SDS011;2225;53.568;13.266;2023-09-12T09:24:14;21.37;;;8.90;;
4424;SDS011;2225;53.568;13.266;2023-09-12T09:26:44;18.20;;;8.10;;
4424;SDS011;2225;53.568;13.266;2023-09-12T09:29:17;14.93;;;7.17;;
4424;SDS011;2225;53.568;13.266;2023-09-12T09:31:49;12.70;;;7.30;;
4424;SDS011;2225;53.568;13.266;2023-09-12T09:34:21;16.40;;;7.60;;
4424;SDS011;2225;53.568;13.266;2023-09-12T09:36:51;15.23;;;7.47;;
4424;SDS011;2225;53.568;13.266;2023-09-12T09:39:19;18.27;;;8.20;;
4424;SDS011;2225;53.568;13.266;2023-09-12T09:41:50;14.63;;;7.30;;
4424;SDS011;2225;53.568;13.266;2023-09-12T09:44:23;12.97;;;6.90;;
4424;SDS011;2225;53.568;13.266;2023-09-12T09:46:59;15.87;;;5.90;;
4424;SDS011;2225;53.568;13.266;2023-09-12T09:49:32;15.30;;;6.30;;
4424;SDS011;2225;53.568;13.266;2023-09-12T09:52:03;14.47;;;5.07;;
4424;SDS011;2225;53.568;13.266;2023-09-12T09:54:31;12.87;;;5.27;;
4424;SDS011;2225;53.568;13.266;2023-09-12T09:56:59;10.03;;;5.30;;
4424;SDS011;2225;53.568;13.266;2023-09-12T09:59:26;13.63;;;5.60;;
4424;SDS011;2225;53.568;13.266;2023-09-12T10:01:55;19.13;;;5.80;;
4424;SDS011;2225;53.568;13.266;2023-09-12T10:04:26;9.90;;;5.30;;
4424;SDS011;2225;53.568;13.266;2023-09-12T10:06:55;10.73;;;4.43;;
4424;SDS011;2225;53.568;13.266;2023-09-12T10:09:25;12.73;;;4.70;;
4424;SDS011;2225;53.568;13.266;2023-09-12T10:11:54;13.33;;;4.43;;
4424;SDS011;2225;53.568;13.266;2023-09-12T10:14:22;12.07;;;4.23;;
4424;SDS011;2225;53.568;13.266;2023-09-12T10:16:53;10.20;;;4.70;;
4424;SDS011;2225;53.568;13.266;2023-09-12T10:19:43;9.80;;;4.10;;
4424;SDS011;2225;53.568;13.266;2023-09-12T10:22:22;10.03;;;4.43;;
4424;SDS011;2225;53.568;13.266;2023-09-12T10:24:54;8.00;;;3.90;;
4424;SDS011;2225;53.568;13.266;2023-09-12T10:27:24;8.40;;;4.40;;
4424;SDS011;2225;53.568;13.266;2023-09-12T10:29:51;12.60;;;4.80;;
4424;SDS011;2225;53.568;13.266;2023-09-12T10:32:19;11.37;;;4.27;;
4424;SDS011;2225;53.568;13.266;2023-09-12T10:34:49;8.20;;;4.23;;
4424;SDS011;2225;53.568;13.266;2023-09-12T10:37:17;11.90;;;4.60;;
4424;SDS011;2225;53.568;13.266;2023-09-12T10:39:48;9.63;;;4.27;;
4424;SDS011;2225;53.568;13.266;2023-09-12T10:42:20;12.43;;;3.60;;
4424;SDS011;2225;53.568;13.266;2023-09-12T10:44:50;11.30;;;3.93;;
4424;SDS011;2225;53.568;13.266;2023-09-12T10:47:18;15.00;;;4.10;;
4424;SDS011;2225;53.568;13.266;2023-09-12T10:49:46;8.67;;;4.50;;
4424;SDS011;2225;53.568;13.266;2023-09-12T10:52:24;9.33;;;4.50;;
4424;SDS011;2225;53.568;13.266;2023-09-12T10:54:52;10.93;;;3.77;;
4424;SDS011;2225;53.568;13.266;2023-09-12T10:57:20;8.87;;;2.57;;
4424;SDS011;2225;53.568;13.266;2023-09-12T11:02:31;5.60;;;2.00;;
4424;SDS011;2225;53.568;13.266;2023-09-12T11:05:03;6.00;;;2.43;;
4424;SDS011;2225;53.568;13.266;2023-09-12T11:07:33;6.67;;;2.50;;
4424;SDS011;2225;53.568;13.266;2023-09-12T11:10:24;5.70;;;2.00;;
4424;SDS011;2225;53.568;13.266;2023-09-12T11:12:55;5.57;;;1.97;;
4424;SDS011;2225;53.568;13.266;2023-09-12T11:15:28;8.10;;;1.90;;
4424;SDS011;2225;53.568;13.266;2023-09-12T11:18:01;12.63;;;1.97;;
4424;SDS011;2225;53.568;13.266;2023-09-12T11:20:50;6.27;;;1.80;;
4424;SDS011;2225;53.568;13.266;2023-09-12T11:23:29;5.40;;;2.00;;
4424;SDS011;2225;53.568;13.266;2023-09-12T11:26:04;6.30;;;2.20;;
4424;SDS011;2225;53.568;13.266;2023-09-12T11:28:33;5.20;;;1.90;;
4424;SDS011;2225;53.568;13.266;2023-09-12T11:31:00;6.07;;;1.90;;
4424;SDS011;2225;53.568;13.266;2023-09-12T11:33:27;4.77;;;1.47;;
4424;SDS011;2225;53.568;13.266;2023-09-12T11:35:55;4.73;;;1.57;;
4424;SDS011;2225;53.568;13.266;2023-09-12T11:38:28;4.93;;;1.50;;
4424;SDS011;2225;53.568;13.266;2023-09-12T11:40:57;6.23;;;2.17;;
4424;SDS011;2225;53.568;13.266;2023-09-12T11:43:26;5.20;;;2.00;;
4424;SDS011;2225;53.568;13.266;2023-09-12T11:45:55;6.20;;;2.53;;
4424;SDS011;2225;53.568;13.266;2023-09-12T11:48:23;7.73;;;2.00;;
4424;SDS011;2225;53.568;13.266;2023-09-12T11:50:54;6.93;;;2.00;;
4424;SDS011;2225;53.568;13.266;2023-09-12T11:53:25;7.70;;;2.00;;
4424;SDS011;2225;53.568;13.266;2023-09-12T11:55:57;6.20;;;2.70;;
4424;SDS011;2225;53.568;13.266;2023-09-12T11:58:26;5.50;;;1.90;;
4424;SDS011;2225;53.568;13.266;2023-09-12T12:00:54;6.53;;;2.10;;
4424;SDS011;2225;53.568;13.266;2023-09-12T12:03:26;8.80;;;2.30;;
4424;SDS011;2225;53.568;13.266;2023-09-12T12:05:56;5.17;;;2.13;;
4424;SDS011;2225;53.568;13.266;2023-09-12T12:08:24;6.60;;;2.47;;
4424;SDS011;2225;53.568;13.266;2023-09-12T12:10:54;5.30;;;2.03;;
4424;SDS011;2225;53.568;13.266;2023-09-12T12:13:24;6.40;;;2.33;;
4424;SDS011;2225;53.568;13.266;2023-09-12T12:15:51;12.30;;;2.30;;
4424;SDS011;2225;53.568;13.266;2023-09-12T12:18:18;9.37;;;2.27;;
4424;SDS011;2225;53.568;13.266;2023-09-12T12:20:45;6.57;;;2.30;;
4424;SDS011;2225;53.568;13.266;2023-09-12T12:23:12;7.73;;;2.30;;
4424;SDS011;2225;53.568;13.266;2023-09-12T12:25:39;6.73;;;2.40;;
4424;SDS011;2225;53.568;13.266;2023-09-12T12:28:06;5.20;;;1.93;;
4424;SDS011;2225;53.568;13.266;2023-09-12T12:30:34;5.50;;;2.00;;
4424;SDS011;2225;53.568;13.266;2023-09-12T12:33:06;9.20;;;2.67;;
4424;SDS011;2225;53.568;13.266;2023-09-12T12:36:01;6.10;;;2.20;;
4424;SDS011;2225;53.568;13.266;2023-09-12T12:38:37;4.73;;;1.67;;
4424;SDS011;2225;53.568;13.266;2023-09-12T12:41:16;8.10;;;2.27;;
4424;SDS011;2225;53.568;13.266;2023-09-12T12:44:05;7.87;;;2.30;;
4424;SDS011;2225;53.568;13.266;2023-09-12T12:46:32;9.23;;;2.60;;
4424;SDS011;2225;53.568;13.266;2023-09-12T12:49:00;8.17;;;2.53;;
4424;SDS011;2225;53.568;13.266;2023-09-12T12:51:27;7.67;;;2.10;;
4424;SDS011;2225;53.568;13.266;2023-09-12T12:54:02;9.23;;;2.50;;
4424;SDS011;2225;53.568;13.266;2023-09-12T12:56:32;7.10;;;2.57;;
4424;SDS011;2225;53.568;13.266;2023-09-12T12:59:00;5.70;;;2.57;;
4424;SDS011;2225;53.568;13.266;2023-09-12T13:01:36;5.37;;;2.30;;
4424;SDS011;2225;53.568;13.266;2023-09-12T13:04:05;7.23;;;2.77;;
4424;SDS011;2225;53.568;13.266;2023-09-12T13:06:34;8.10;;;3.00;;
4424;SDS011;2225;53.568;13.266;2023-09-12T13:09:05;8.03;;;2.80;;
4424;SDS011;2225;53.568;13.266;2023-09-12T13:11:33;7.83;;;3.30;;
4424;SDS011;2225;53.568;13.266;2023-09-12T13:14:03;7.50;;;3.63;;
4424;SDS011;2225;53.568;13.266;2023-09-12T13:16:37;8.17;;;3.37;;
4424;SDS011;2225;53.568;13.266;2023-09-12T13:19:06;6.10;;;3.03;;
4424;SDS011;2225;53.568;13.266;2023-09-12T13:21:33;7.33;;;3.20;;
4424;SDS011;2225;53.568;13.266;2023-09-12T13:24:01;10.63;;;3.47;;
4424;SDS011;2225;53.568;13.266;2023-09-12T13:26:28;7.57;;;3.17;;
4424;SDS011;2225;53.568;13.266;2023-09-12T13:28:56;10.33;;;2.77;;
4424;SDS011;2225;53.568;13.266;2023-09-12T13:31:23;6.57;;;3.00;;
4424;SDS011;2225;53.568;13.266;2023-09-12T13:33:51;7.90;;;3.00;;
4424;SDS011;2225;53.568;13.266;2023-09-12T13:36:18;7.60;;;2.70;;
4424;SDS011;2225;53.568;13.266;2023-09-12T13:38:45;6.80;;;2.60;;
4424;SDS011;2225;53.568;13.266;2023-09-12T13:41:14;7.00;;;2.50;;
4424;SDS011;2225;53.568;13.266;2023-09-12T13:43:41;5.20;;;2.30;;
4424;SDS011;2225;53.568;13.266;2023-09-12T13:46:11;6.93;;;2.10;;
4424;SDS011;2225;53.568;13.266;2023-09-12T13:48:39;7.50;;;2.30;;
4424;SDS011;2225;53.568;13.266;2023-09-12T13:51:06;5.27;;;2.13;;
4424;SDS011;2225;53.568;13.266;2023-09-12T13:53:33;5.10;;;2.00;;
4424;SDS011;2225;53.568;13.266;2023-09-12T13:56:00;5.30;;;2.03;;
4424;SDS011;2225;53.568;13.266;2023-09-12T13:58:28;5.87;;;2.50;;
4424;SDS011;2225;53.568;13.266;2023-09-12T14:01:08;9.03;;;2.23;;
4424;SDS011;2225;53.568;13.266;2023-09-12T14:03:38;6.93;;;2.83;;
4424;SDS011;2225;53.568;13.266;2023-09-12T14:06:06;6.73;;;2.50;;
4424;SDS011;2225;53.568;13.266;2023-09-12T14:08:33;5.47;;;2.00;;
4424;SDS011;2225;53.568;13.266;2023-09-12T14:11:00;5.57;;;1.63;;
4424;SDS011;2225;53.568;13.266;2023-09-12T14:13:27;5.40;;;1.77;;
4424;SDS011;2225;53.568;13.266;2023-09-12T14:15:54;5.77;;;1.60;;
4424;SDS011;2225;53.568;13.266;2023-09-12T14:18:22;6.33;;;1.80;;
4424;SDS011;2225;53.568;13.266;2023-09-12T14:20:52;4.90;;;1.83;;
4424;SDS011;2225;53.568;13.266;2023-09-12T14:23:19;5.73;;;1.80;;
4424;SDS011;2225;53.568;13.266;2023-09-12T14:25:48;5.80;;;2.23;;
4424;SDS011;2225;53.568;13.266;2023-09-12T14:28:15;5.90;;;2.20;;
4424;SDS011;2225;53.568;13.266;2023-09-12T14:30:44;6.43;;;1.90;;
4424;SDS011;2225;53.568;13.266;2023-09-12T14:33:12;6.13;;;2.10;;
4424;SDS011;2225;53.568;13.266;2023-09-12T14:35:43;7.30;;;2.03;;
4424;SDS011;2225;53.568;13.266;2023-09-12T14:38:10;5.83;;;2.10;;
4424;SDS011;2225;53.568;13.266;2023-09-12T14:40:37;15.67;;;2.60;;
4424;SDS011;2225;53.568;13.266;2023-09-12T14:43:09;7.07;;;2.50;;
4424;SDS011;2225;53.568;13.266;2023-09-12T14:45:36;6.33;;;2.40;;
4424;SDS011;2225;53.568;13.266;2023-09-12T14:48:03;8.40;;;2.90;;
4424;SDS011;2225;53.568;13.266;2023-09-12T14:50:31;6.73;;;2.60;;
4424;SDS011;2225;53.568;13.266;2023-09-12T14:53:10;7.80;;;2.60;;
4424;SDS011;2225;53.568;13.266;2023-09-12T14:55:39;6.30;;;2.73;;
4424;SDS011;2225;53.568;13.266;2023-09-12T14:58:06;8.83;;;2.77;;